Terminal Aerodrome Forecast
Issued by NWS

Home | Current Version | Previous Version | Text Only | Print | Product List | Glossary On
Versions: 1 2 3 4 5 6 7 8 9 10 11 12 13 14 15 16 17 18 19 20
000
FTUS43 KDLH 060500
TAFHYR
TAF
KHYR 060530Z 0606/0706 16007KT P6SM FEW060
     FM060900 16006KT P6SM BKN025 OVC040
     FM061100 15006KT P6SM -SHRA BKN015 OVC040
     FM061500 14008KT P6SM VCSH BKN025
     FM061800 15012KT P6SM SCT025 BKN060
     FM070300 15008KT P6SM VCSH BKN040 OVC070=

USA.gov is the U.S. government's official web portal to all federal, state and local government web resources and services.